createdAt,value
2022-12-18T00:01:18.681Z,99785.19
2022-12-18T00:03:46.135Z,99783.38
2022-12-18T00:06:12.992Z,99789.47
2022-12-18T00:08:39.564Z,99793.78
2022-12-18T00:11:08.721Z,99789.47
2022-12-18T00:13:36.440Z,99787.53
2022-12-18T00:16:10.028Z,99789.22
2022-12-18T00:18:37.320Z,99799.34
2022-12-18T00:21:07.027Z,99793.25
2022-12-18T00:23:34.754Z,99791.59
2022-12-18T00:26:03.028Z,99797.69
2022-12-18T00:28:29.437Z,99791.72
2022-12-18T00:31:06.074Z,99796.88
2022-12-18T00:33:32.770Z,99791.09
2022-12-18T00:36:06.378Z,99802.72
2022-12-18T00:38:33.559Z,99794.81
2022-12-18T00:41:00.298Z,99807.16
2022-12-18T00:43:27.111Z,99805.50
2022-12-18T00:45:53.879Z,99808.28
2022-12-18T00:48:20.324Z,99806.34
2022-12-18T00:50:48.738Z,99809.66
2022-12-18T00:53:15.359Z,99802.59
2022-12-18T00:55:42.307Z,99797.34
2022-12-18T00:58:09.944Z,99792.06
2022-12-18T01:00:37.139Z,99792.91
2022-12-18T01:03:04.230Z,99804.38
2022-12-18T01:05:31.145Z,99800.91
2022-12-18T01:07:58.116Z,99805.25
2022-12-18T01:10:25.241Z,99802.59
2022-12-18T01:12:52.219Z,99791.81
2022-12-18T01:15:19.710Z,99795.16
2022-12-18T01:17:46.114Z,99786.44
2022-12-18T01:20:13.576Z,99795.59
2022-12-18T01:22:40.168Z,99802.53
2022-12-18T01:25:06.991Z,99807.09
2022-12-18T01:27:34.866Z,99816.91
2022-12-18T01:30:01.742Z,99799.47
2022-12-18T01:32:31.450Z,99808.06
2022-12-18T01:34:57.979Z,99816.81
2022-12-18T01:37:25.441Z,99812.50
2022-12-18T01:39:55.258Z,99818.56
2022-12-18T01:42:22.400Z,99808.06
2022-12-18T01:45:03.435Z,99812.38
2022-12-18T01:47:32.998Z,99807.38
2022-12-18T01:50:05.330Z,99820.53
2022-12-18T01:52:34.270Z,99818.56
2022-12-18T01:55:02.559Z,99821.91
2022-12-18T01:57:29.375Z,99821.91
2022-12-18T02:00:01.910Z,99804.19
2022-12-18T02:02:31.168Z,99794.78
2022-12-18T02:04:57.924Z,99809.75
2022-12-18T02:07:38.610Z,99818.31
2022-12-18T02:10:15.090Z,99802.66
2022-12-18T02:12:53.681Z,99802.66
2022-12-18T02:15:29.455Z,99803.75
2022-12-18T02:18:03.856Z,99803.66
2022-12-18T02:20:39.296Z,99804.47
2022-12-18T02:23:25.094Z,99811.09
2022-12-18T02:26:26.917Z,99813.44
2022-12-18T02:29:11.543Z,99819.41
2022-12-18T02:31:44.027Z,99821.03
2022-12-18T02:34:12.828Z,99821.03
2022-12-18T02:36:42.333Z,99813.31
2022-12-18T02:39:12.446Z,99813.31
2022-12-18T02:41:40.006Z,99816.75
2022-12-18T02:44:11.832Z,99823.53
2022-12-18T02:46:45.187Z,99824.34
2022-12-18T02:49:28.476Z,99836.56
2022-12-18T02:52:02.491Z,99841.81
2022-12-18T02:54:55.515Z,99840.03
2022-12-18T02:57:40.805Z,99836.56
2022-12-18T03:00:08.682Z,99839.63
2022-12-18T03:02:57.214Z,99826.06
2022-12-18T03:05:29.045Z,99828.00
2022-12-18T03:08:07.046Z,99835.22
2022-12-18T03:10:39.481Z,99823.31
2022-12-18T03:13:10.447Z,99826.91
2022-12-18T03:15:43.039Z,99831.06
2022-12-18T03:18:28.237Z,99833.00
2022-12-18T03:20:58.465Z,99835.09
2022-12-18T03:23:28.660Z,99842.00
2022-12-18T03:26:05.893Z,99842.16
2022-12-18T03:28:38.559Z,99849.47
2022-12-18T03:31:06.417Z,99852.94
2022-12-18T03:33:40.853Z,99852.50
2022-12-18T03:36:08.034Z,99851.00
2022-12-18T03:38:34.675Z,99853.94
2022-12-18T03:41:08.275Z,99856.00
2022-12-18T03:44:06.175Z,99851.31
2022-12-18T03:46:56.976Z,99847.56
2022-12-18T03:49:50.992Z,99836.88
2022-12-18T03:52:32.639Z,99847.13
2022-12-18T03:55:01.678Z,99847.69
2022-12-18T03:57:31.109Z,99852.41
2022-12-18T04:00:04.116Z,99848.53
2022-12-18T04:02:32.821Z,99843.00
2022-12-18T04:05:02.699Z,99849.94
2022-12-18T04:07:29.777Z,99849.38
2022-12-18T04:09:59.687Z,99843.31
2022-12-18T04:12:27.610Z,99836.66
2022-12-18T04:14:54.017Z,99838.66
2022-12-18T04:17:20.960Z,99835.19
2022-12-18T04:19:47.525Z,99837.81
2022-12-18T04:22:14.094Z,99822.06
2022-12-18T04:24:40.648Z,99838.91
2022-12-18T04:27:07.149Z,99836.16
2022-12-18T04:29:33.701Z,99833.00
2022-12-18T04:32:00.202Z,99843.38
2022-12-18T04:34:27.190Z,99856.50
2022-12-18T04:36:53.642Z,99861.63
2022-12-18T04:39:20.211Z,99859.13
2022-12-18T04:41:46.689Z,99861.75
2022-12-18T04:44:13.193Z,99859.28
2022-12-18T04:46:39.715Z,99852.47
2022-12-18T04:49:06.254Z,99848.06
2022-12-18T04:51:32.724Z,99848.88
2022-12-18T04:53:59.159Z,99842.69
2022-12-18T04:56:25.654Z,99835.72
2022-12-18T04:58:52.042Z,99842.94
2022-12-18T05:01:19.348Z,99845.16
2022-12-18T05:03:46.241Z,99844.47
2022-12-18T05:06:12.757Z,99835.91
2022-12-18T05:08:39.294Z,99834.25
2022-12-18T05:11:12.036Z,99843.63
2022-12-18T05:13:39.446Z,99843.63
2022-12-18T05:16:06.867Z,99829.53
2022-12-18T05:18:33.497Z,99837.53
2022-12-18T05:20:59.999Z,99853.56
2022-12-18T05:23:26.760Z,99850.25
2022-12-18T05:25:57.915Z,99848.59
2022-12-18T05:28:26.234Z,99839.75
2022-12-18T05:30:54.418Z,99850.94
2022-12-18T05:33:22.538Z,99855.38
2022-12-18T05:35:53.437Z,99862.31
2022-12-18T05:38:21.184Z,99865.78
2022-12-18T05:40:48.979Z,99858.56
2022-12-18T05:43:20.910Z,99864.66
2022-12-18T05:45:48.881Z,99866.59
2022-12-18T05:48:15.769Z,99869.63
2022-12-18T05:50:43.806Z,99866.84
2022-12-18T05:53:10.271Z,99866.03
2022-12-18T05:55:37.994Z,99859.25
2022-12-18T05:58:05.849Z,99864.91
2022-12-18T06:00:34.178Z,99855.22
2022-12-18T06:03:00.742Z,99861.31
2022-12-18T06:05:27.246Z,99859.66
2022-12-18T06:07:53.908Z,99858.00
2022-12-18T06:10:20.426Z,99865.88
2022-12-18T06:12:46.897Z,99859.66
2022-12-18T06:15:14.010Z,99865.75
2022-12-18T06:17:41.190Z,99862.97
2022-12-18T06:20:07.989Z,99868.94
2022-12-18T06:22:35.817Z,99868.94
2022-12-18T06:25:02.634Z,99865.50
2022-12-18T06:27:29.449Z,99862.72
2022-12-18T06:29:55.861Z,99868.13
2022-12-18T06:32:22.292Z,99862.44
2022-12-18T06:34:48.729Z,99867.69
2022-12-18T06:37:15.477Z,99878.34
2022-12-18T06:39:41.907Z,99880.97
2022-12-18T06:42:08.538Z,99878.06
2022-12-18T06:44:34.959Z,99880.53
2022-12-18T06:47:01.505Z,99871.56
2022-12-18T06:49:30.603Z,99884.00
2022-12-18T06:51:57.316Z,99889.53
2022-12-18T06:54:23.797Z,99882.47
2022-12-18T06:56:50.398Z,99886.91
2022-12-18T06:59:17.590Z,99882.06
2022-12-18T07:01:44.202Z,99888.41
2022-12-18T07:04:11.175Z,99889.78
2022-12-18T07:06:37.576Z,99885.91
2022-12-18T07:09:04.108Z,99886.03
2022-12-18T07:11:30.542Z,99887.84
2022-12-18T07:14:02.801Z,99900.81
2022-12-18T07:16:29.630Z,99910.25
2022-12-18T07:18:57.187Z,99910.50
2022-12-18T07:21:24.862Z,99916.44
2022-12-18T07:23:51.393Z,99911.09
2022-12-18T07:26:20.747Z,99911.63
2022-12-18T07:28:47.886Z,99911.38
2022-12-18T07:31:21.525Z,99917.84
2022-12-18T07:33:48.664Z,99916.63
2022-12-18T07:36:15.631Z,99921.75
2022-12-18T07:38:42.152Z,99929.63
2022-12-18T07:41:13.261Z,99933.22
2022-12-18T07:43:40.932Z,99932.97
2022-12-18T07:46:10.096Z,99930.75
2022-12-18T07:48:36.782Z,99930.50
2022-12-18T07:51:06.114Z,99936.44
2022-12-18T07:53:33.849Z,99931.63
2022-12-18T07:56:26.541Z,99925.09
2022-12-18T07:58:50.089Z,99933.56
2022-12-18T08:01:16.595Z,99932.44
2022-12-18T08:03:43.711Z,99930.78
2022-12-18T08:06:11.220Z,99932.44
2022-12-18T08:08:38.030Z,99933.00
2022-12-18T08:11:04.510Z,99930.66
2022-12-18T08:13:30.980Z,99931.75
2022-12-18T08:16:03.709Z,99938.94
2022-12-18T08:18:30.586Z,99937.56
2022-12-18T08:20:57.238Z,99928.28
2022-12-18T08:23:26.453Z,99925.38
2022-12-18T08:25:55.018Z,99928.41
2022-12-18T08:28:21.469Z,99939.66
2022-12-18T08:30:52.966Z,99942.81
2022-12-18T08:33:19.706Z,99930.22
2022-12-18T08:35:46.329Z,99933.25
2022-12-18T08:38:12.760Z,99941.28
2022-12-18T08:40:39.142Z,99928.00
2022-12-18T08:43:24.151Z,99932.41
2022-12-18T08:45:50.579Z,99929.78
2022-12-18T08:48:21.995Z,99936.81
2022-12-18T08:50:59.481Z,99935.94
2022-12-18T08:53:25.940Z,99932.75
2022-12-18T08:55:52.792Z,99926.59
2022-12-18T08:58:19.414Z,99945.59
2022-12-18T09:00:46.108Z,99931.44
2022-12-18T09:03:17.697Z,99928.66
2022-12-18T09:05:44.646Z,99927.72
2022-12-18T09:08:11.041Z,99912.44
2022-12-18T09:10:45.438Z,99920.91
2022-12-18T09:13:13.298Z,99916.00
2022-12-18T09:15:47.823Z,99918.22
2022-12-18T09:18:15.735Z,99914.16
2022-12-18T09:20:42.279Z,99919.69
2022-12-18T09:23:09.735Z,99914.94
2022-12-18T09:25:37.208Z,99907.44
2022-12-18T09:28:11.875Z,99910.16
2022-12-18T09:30:44.318Z,99909.97
2022-12-18T09:33:10.804Z,99900.47
2022-12-18T09:35:41.639Z,99896.66
2022-12-18T09:38:14.873Z,99898.06
2022-12-18T09:40:44.954Z,99894.38
2022-12-18T09:43:39.875Z,99900.09
2022-12-18T09:46:10.977Z,99891.81
2022-12-18T09:48:46.453Z,99888.75
2022-12-18T09:51:17.682Z,99881.75
2022-12-18T09:53:50.021Z,99877.91
2022-12-18T09:56:19.416Z,99882.31
2022-12-18T09:59:00.914Z,99875.81
2022-12-18T10:01:36.295Z,99873.06
2022-12-18T10:04:10.146Z,99867.13
2022-12-18T10:06:44.121Z,99871.81
2022-12-18T10:09:21.715Z,99875.50
2022-12-18T10:12:12.503Z,99871.88
2022-12-18T10:14:44.777Z,99877.16
2022-12-18T10:17:39.104Z,99879.97
2022-12-18T10:20:17.702Z,99884.28
2022-12-18T10:23:36.720Z,99878.50
2022-12-18T10:26:11.305Z,99888.28
2022-12-18T10:28:40.380Z,99883.94
2022-12-18T10:31:24.698Z,99889.38
2022-12-18T10:33:51.751Z,99883.06
2022-12-18T10:36:18.223Z,99879.38
2022-12-18T10:38:44.855Z,99878.00
2022-12-18T10:41:22.907Z,99890.41
2022-12-18T10:43:49.296Z,99892.34
2022-12-18T10:46:20.651Z,99890.97
2022-12-18T10:48:55.015Z,99884.47
2022-12-18T10:51:30.326Z,99888.28
2022-12-18T10:54:02.201Z,99882.13
2022-12-18T10:56:31.740Z,99882.91
2022-12-18T10:59:02.646Z,99884.50
2022-12-18T11:01:50.023Z,99889.75
2022-12-18T11:04:25.002Z,99890.94
2022-12-18T11:06:57.463Z,99884.84
2022-12-18T11:09:28.001Z,99869.47
2022-12-18T11:12:00.253Z,99879.69
2022-12-18T11:15:00.527Z,99869.56
2022-12-18T11:17:36.460Z,99868.34
2022-12-18T11:20:06.595Z,99857.25
2022-12-18T11:22:37.715Z,99847.81
2022-12-18T11:25:36.128Z,99843.72
2022-12-18T11:28:34.653Z,99830.03
2022-12-18T11:31:27.011Z,99822.63
2022-12-18T11:34:27.581Z,99831.97
2022-12-18T11:36:46.539Z,99838.28
2022-12-18T11:39:32.395Z,99831.31
2022-12-18T11:42:12.772Z,99833.03
2022-12-18T11:44:46.706Z,99834.22
2022-12-18T11:47:54.381Z,99825.88
2022-12-18T11:50:32.477Z,99821.13
2022-12-18T11:53:02.930Z,99812.13
2022-12-18T11:55:40.784Z,99815.31
2022-12-18T11:58:29.471Z,99816.88
2022-12-18T12:01:25.063Z,99809.06
2022-12-18T12:04:24.488Z,99811.44
2022-12-18T12:07:23.999Z,99808.78
2022-12-18T12:10:13.426Z,99798.63
2022-12-18T12:12:55.401Z,99799.44
2022-12-18T12:16:19.699Z,99793.56
2022-12-18T12:18:55.960Z,99786.72
2022-12-18T12:21:53.391Z,99792.03
2022-12-18T12:24:54.994Z,99793.28
2022-12-18T12:27:47.401Z,99790.31
2022-12-18T12:30:30.820Z,99787.72
2022-12-18T12:33:06.132Z,99785.97
2022-12-18T12:36:14.909Z,99785.59
2022-12-18T12:38:56.900Z,99794.50
2022-12-18T12:41:51.085Z,99797.28
2022-12-18T12:44:27.179Z,99795.16
2022-12-18T12:47:00.406Z,99799.78
2022-12-18T12:49:32.247Z,99790.50
2022-12-18T12:52:32.807Z,99788.97
2022-12-18T12:55:07.091Z,99790.53
2022-12-18T12:57:50.372Z,99804.00
2022-12-18T13:00:25.379Z,99811.91
2022-12-18T13:03:43.119Z,99810.97
2022-12-18T13:06:44.498Z,99806.38
2022-12-18T13:09:12.483Z,99808.84
2022-12-18T13:12:06.203Z,99809.03
2022-12-18T13:15:07.581Z,99807.22
2022-12-18T13:17:45.689Z,99808.56
2022-12-18T13:20:20.177Z,99809.56
2022-12-18T13:22:53.534Z,99809.28
2022-12-18T13:25:39.222Z,99807.63
2022-12-18T13:28:17.339Z,99807.28
2022-12-18T13:31:01.424Z,99793.09
2022-12-18T13:36:43.682Z,99794.13
2022-12-18T13:39:34.096Z,99791.06
2022-12-18T13:42:08.761Z,99787.16
2022-12-18T13:44:43.270Z,99787.16
2022-12-18T13:47:55.684Z,99782.66
2022-12-18T13:50:35.433Z,99782.66
2022-12-18T13:53:06.035Z,99785.03
2022-12-18T13:55:36.900Z,99777.41
2022-12-18T13:58:07.159Z,99781.63
2022-12-18T14:00:34.243Z,99777.69
2022-12-18T14:03:02.089Z,99783.19
2022-12-18T14:05:40.261Z,99780.72
2022-12-18T14:08:14.591Z,99781.69
2022-12-18T14:10:51.928Z,99787.38
2022-12-18T14:13:22.366Z,99785.84
2022-12-18T14:15:51.096Z,99785.53
2022-12-18T14:18:20.629Z,99785.63
2022-12-18T14:20:52.586Z,99795.31
2022-12-18T14:23:39.889Z,99794.19
2022-12-18T14:26:30.661Z,99792.91
2022-12-18T14:28:59.264Z,99789.16
2022-12-18T14:31:27.916Z,99789.84
2022-12-18T14:33:54.961Z,99801.00
2022-12-18T14:36:31.361Z,99796.22
2022-12-18T14:39:00.857Z,99797.59
2022-12-18T14:41:27.570Z,99801.59
2022-12-18T14:43:55.351Z,99798.63
2022-12-18T14:46:37.642Z,99793.19
2022-12-18T14:49:18.993Z,99802.72
2022-12-18T14:51:51.873Z,99805.25
2022-12-18T14:54:20.966Z,99806.75
2022-12-18T14:56:53.150Z,99808.28
2022-12-18T14:59:24.669Z,99803.66
2022-12-18T15:02:19.416Z,99793.13
2022-12-18T15:04:46.216Z,99796.28
2022-12-18T15:07:12.554Z,99812.53
2022-12-18T15:09:42.198Z,99804.91
2022-12-18T15:12:26.960Z,99803.97
2022-12-18T15:14:53.424Z,99801.03
2022-12-18T15:17:24.338Z,99801.53
2022-12-18T15:19:59.701Z,99795.09
2022-12-18T15:22:31.574Z,99794.63
2022-12-18T15:24:59.396Z,99796.41
2022-12-18T15:27:38.669Z,99793.75
2022-12-18T15:30:08.784Z,99787.00
2022-12-18T15:32:39.830Z,99790.00
2022-12-18T15:35:12.286Z,99781.56
2022-12-18T15:37:42.020Z,99782.91
2022-12-18T15:40:12.530Z,99786.53
2022-12-18T15:42:57.521Z,99784.06
2022-12-18T15:45:23.963Z,99790.53
2022-12-18T15:47:50.561Z,99794.19
2022-12-18T15:50:16.985Z,99790.84
2022-12-18T15:52:46.509Z,99794.88
2022-12-18T15:55:37.443Z,99795.19
2022-12-18T15:58:06.074Z,99789.59
2022-12-18T16:00:34.893Z,99794.56
2022-12-18T16:03:01.477Z,99791.91
2022-12-18T16:05:28.650Z,99794.56
2022-12-18T16:07:55.075Z,99799.03
2022-12-18T16:10:21.617Z,99796.56
2022-12-18T16:12:48.457Z,99789.59
2022-12-18T16:15:21.070Z,99800.19
2022-12-18T16:17:50.870Z,99802.34
2022-12-18T16:20:19.645Z,99792.25
2022-12-18T16:22:46.945Z,99790.63
2022-12-18T16:25:26.342Z,99793.09
2022-12-18T16:27:55.938Z,99783.31
2022-12-18T16:30:25.174Z,99785.31
2022-12-18T16:32:52.587Z,99782.00
2022-12-18T16:35:19.081Z,99784.84
2022-12-18T16:37:45.581Z,99780.69
2022-12-18T16:40:15.036Z,99775.41
2022-12-18T16:42:43.188Z,99774.75
2022-12-18T16:45:12.538Z,99782.34
2022-12-18T16:47:39.193Z,99781.34
2022-12-18T16:50:07.634Z,99778.69
2022-12-18T16:52:34.944Z,99787.63
2022-12-18T16:55:01.362Z,99782.34
2022-12-18T16:57:27.907Z,99785.66
2022-12-18T16:59:56.806Z,99782.34
2022-12-18T17:02:36.266Z,99776.22
2022-12-18T17:05:03.475Z,99788.47
2022-12-18T17:07:34.770Z,99778.69
2022-12-18T17:10:12.621Z,99780.38
2022-12-18T17:12:40.174Z,99776.72
2022-12-18T17:15:08.319Z,99760.66
2022-12-18T17:17:43.934Z,99760.47
2022-12-18T17:20:11.728Z,99762.13
2022-12-18T17:22:39.632Z,99764.63
2022-12-18T17:25:18.811Z,99760.16
2022-12-18T17:27:52.044Z,99760.81
2022-12-18T17:30:24.828Z,99754.50
2022-12-18T17:32:52.527Z,99749.22
2022-12-18T17:35:20.564Z,99751.84
2022-12-18T17:37:49.350Z,99761.44
2022-12-18T17:40:22.740Z,99756.34
2022-12-18T17:43:05.863Z,99761.44
2022-12-18T17:45:39.616Z,99763.09
2022-12-18T17:48:08.636Z,99757.97
2022-12-18T17:50:39.461Z,99760.63
2022-12-18T17:53:08.245Z,99769.22
2022-12-18T17:55:35.971Z,99770.06
2022-12-18T17:58:06.408Z,99761.13
2022-12-18T18:00:39.484Z,99761.97
2022-12-18T18:03:07.295Z,99757.66
2022-12-18T18:05:37.783Z,99762.59
2022-12-18T18:08:11.318Z,99761.59
2022-12-18T18:10:39.805Z,99759.78
2022-12-18T18:13:46.457Z,99755.31
2022-12-18T18:16:22.130Z,99753.47
2022-12-18T18:18:49.636Z,99761.44
2022-12-18T18:21:21.333Z,99748.19
2022-12-18T18:23:55.579Z,99749.84
2022-12-18T18:26:34.130Z,99746.22
2022-12-18T18:29:05.708Z,99751.50
2022-12-18T18:31:41.431Z,99750.69
2022-12-18T18:34:17.772Z,99747.84
2022-12-18T18:36:50.580Z,99747.50
2022-12-18T18:39:29.150Z,99740.56
2022-12-18T18:42:00.671Z,99732.44
2022-12-18T18:44:59.428Z,99733.25
2022-12-18T18:47:29.769Z,99721.00
2022-12-18T18:50:08.733Z,99727.00
2022-12-18T18:52:36.211Z,99724.34
2022-12-18T18:55:22.012Z,99723.34
2022-12-18T18:57:52.086Z,99726.81
2022-12-18T19:00:18.809Z,99717.03
2022-12-18T19:02:45.747Z,99734.56
2022-12-18T19:05:12.195Z,99730.94
2022-12-18T19:07:38.663Z,99736.03
2022-12-18T19:10:05.669Z,99733.41
2022-12-18T19:12:51.608Z,99725.28
2022-12-18T19:15:18.184Z,99735.91
2022-12-18T19:17:44.772Z,99730.41
2022-12-18T19:20:14.099Z,99727.78
2022-12-18T19:22:40.519Z,99725.28
2022-12-18T19:25:07.726Z,99725.28
2022-12-18T19:27:36.403Z,99724.47
2022-12-18T19:30:03.454Z,99718.34
2022-12-18T19:32:30.112Z,99721.00
2022-12-18T19:34:57.338Z,99718.34
2022-12-18T19:37:23.725Z,99704.44
2022-12-18T19:39:52.551Z,99709.72
2022-12-18T19:42:24.591Z,99700.13
2022-12-18T19:44:52.750Z,99698.31
2022-12-18T19:47:19.090Z,99699.94
2022-12-18T19:49:45.504Z,99704.09
2022-12-18T19:52:11.995Z,99688.22
2022-12-18T19:54:38.373Z,99689.50
2022-12-18T19:57:07.583Z,99683.88
2022-12-18T19:59:33.966Z,99681.03
2022-12-18T20:02:00.544Z,99670.91
2022-12-18T20:04:27.082Z,99667.28
2022-12-18T20:06:54.379Z,99675.88
2022-12-18T20:09:21.217Z,99672.84
2022-12-18T20:11:48.418Z,99673.53
2022-12-18T20:14:19.642Z,99668.22
2022-12-18T20:16:51.172Z,99670.69
2022-12-18T20:19:18.236Z,99669.88
2022-12-18T20:21:45.422Z,99657.63
2022-12-18T20:24:12.235Z,99649.66
2022-12-18T20:26:38.975Z,99648.00
2022-12-18T20:29:05.403Z,99643.69
2022-12-18T20:31:32.439Z,99637.56
2022-12-18T20:34:01.571Z,99621.84
2022-12-18T20:36:29.444Z,99612.25
2022-12-18T20:39:00.490Z,99621.03
2022-12-18T20:41:37.243Z,99615.91
2022-12-18T20:44:21.586Z,99610.94
2022-12-18T20:46:49.454Z,99622.56
2022-12-18T20:49:16.005Z,99621.09
2022-12-18T20:51:42.450Z,99643.13
2022-12-18T20:54:11.790Z,99642.94
2022-12-18T20:56:38.579Z,99641.09
2022-12-18T20:59:05.078Z,99653.34
2022-12-18T21:01:31.541Z,99634.78
2022-12-18T21:04:00.562Z,99654.66
2022-12-18T21:06:27.270Z,99644.06
2022-12-18T21:08:53.728Z,99629.81
2022-12-18T21:11:38.555Z,99604.94
2022-12-18T21:14:09.917Z,99606.78
2022-12-18T21:16:36.664Z,99627.78
2022-12-18T21:19:03.447Z,99647.16
2022-12-18T21:21:29.874Z,99655.47
2022-12-18T21:24:00.881Z,99653.00
2022-12-18T21:26:28.352Z,99646.91
2022-12-18T21:28:56.879Z,99634.28
2022-12-18T21:31:25.126Z,99635.75
2022-12-18T21:33:52.005Z,99627.47
2022-12-18T21:36:22.364Z,99616.69
2022-12-18T21:38:48.767Z,99636.88
2022-12-18T21:41:41.691Z,99640.16
2022-12-18T21:44:12.256Z,99636.53
2022-12-18T21:46:42.150Z,99649.63
2022-12-18T21:49:09.727Z,99640.66
2022-12-18T21:51:36.663Z,99644.13
2022-12-18T21:54:04.083Z,99631.38
2022-12-18T21:56:43.983Z,99625.06
2022-12-18T21:59:12.049Z,99620.75
2022-12-18T22:01:38.563Z,99620.38
2022-12-18T22:04:05.249Z,99613.25
2022-12-18T22:06:31.749Z,99615.09
2022-12-18T22:08:58.145Z,99621.03
2022-12-18T22:11:24.497Z,99622.84
2022-12-18T22:13:50.974Z,99619.75
2022-12-18T22:16:17.444Z,99601.19
2022-12-18T22:18:43.937Z,99606.50
2022-12-18T22:21:28.540Z,99616.09
2022-12-18T22:24:01.082Z,99608.31
2022-12-18T22:26:30.445Z,99614.44
2022-12-18T22:29:17.608Z,99611.78
2022-12-18T22:31:44.166Z,99610.16
2022-12-18T22:34:11.280Z,99610.78
2022-12-18T22:36:40.336Z,99611.44
2022-12-18T22:39:09.520Z,99616.41
2022-12-18T22:41:35.874Z,99608.06
2022-12-18T22:44:02.336Z,99600.59
2022-12-18T22:46:32.134Z,99598.59
2022-12-18T22:48:58.809Z,99606.34
2022-12-18T22:51:25.644Z,99595.75
2022-12-18T22:53:52.140Z,99594.09
2022-12-18T22:56:21.391Z,99604.72
2022-12-18T22:58:49.445Z,99613.50
2022-12-18T23:01:34.123Z,99614.31
2022-12-18T23:04:02.283Z,99616.13
2022-12-18T23:06:28.933Z,99608.00
2022-12-18T23:08:57.309Z,99612.28
2022-12-18T23:11:24.904Z,99618.25
2022-12-18T23:13:51.503Z,99622.75
2022-12-18T23:16:22.427Z,99628.22
2022-12-18T23:18:56.543Z,99622.91
2022-12-18T23:21:24.131Z,99628.88
2022-12-18T23:23:50.903Z,99622.56
2022-12-18T23:26:20.676Z,99604.00
2022-12-18T23:28:47.648Z,99600.97
2022-12-18T23:31:26.125Z,99613.06
2022-12-18T23:33:54.114Z,99610.25
2022-12-18T23:36:21.665Z,99609.22
2022-12-18T23:38:53.403Z,99606.56
2022-12-18T23:41:21.527Z,99604.56
2022-12-18T23:43:48.093Z,99597.44
2022-12-18T23:46:27.166Z,99612.38
2022-12-18T23:48:57.851Z,99606.19
2022-12-18T23:51:25.717Z,99594.63
2022-12-18T23:53:53.914Z,99597.28
2022-12-18T23:56:20.754Z,99598.91
2022-12-18T23:58:47.431Z,99598.09
